Time;durP1;ratioP1;P1;durP2;ratioP2;P2;SDS_P1;SDS_P2;PMS_P1;PMS_P2;Temp;Humidity;BMP_temperature;BMP_pressure;BME280_temperature;BME280_humidity;BME280_pressure;Samples;Min_cycle;Max_cycle;Signal;HPM_P1;HPM_P2
2022/04/17 00:00:53;;;;;;;3.47;2.35;;;;;;;8.72;44.47;100176.88;4281968;33;35171;-67
2022/04/17 00:03:22;;;;;;;3.80;2.30;;;;;;;8.72;43.36;100174.28;4288275;33;35385;-67
2022/04/17 00:05:50;;;;;;;4.80;2.65;;;;;;;8.59;41.63;100172.37;4281857;33;33619;-67
2022/04/17 00:08:18;;;;;;;3.60;2.30;;;;;;;8.44;43.57;100166.19;4291298;33;33891;-67
2022/04/17 00:10:47;;;;;;;4.07;2.10;;;;;;;8.40;43.35;100163.50;4290301;33;35105;-67
2022/04/17 00:13:15;;;;;;;6.32;2.42;;;;;;;8.15;43.73;100170.97;4291114;33;35323;-67
2022/04/17 00:15:43;;;;;;;3.35;2.30;;;;;;;7.94;42.87;100161.19;4289982;33;33653;-67
2022/04/17 00:18:12;;;;;;;4.10;2.47;;;;;;;8.39;43.20;100159.16;4291133;33;34775;-67
2022/04/17 00:20:39;;;;;;;4.87;2.25;;;;;;;7.86;41.27;100160.25;4289489;33;36013;-67
2022/04/17 00:23:07;;;;;;;4.43;2.50;;;;;;;8.05;41.35;100162.22;4291067;33;34457;-66
2022/04/17 00:25:35;;;;;;;6.32;2.00;;;;;;;7.98;42.21;100157.81;4289066;33;32014;-67
2022/04/17 00:28:04;;;;;;;3.72;2.20;;;;;;;7.76;40.62;100157.53;4291052;33;34062;-67
2022/04/17 00:30:32;;;;;;;3.60;2.15;;;;;;;7.83;39.88;100158.47;4290320;33;34956;-67
2022/04/17 00:33:00;;;;;;;4.03;2.40;;;;;;;7.50;39.21;100166.63;4285650;33;35320;-67
2022/04/17 00:35:28;;;;;;;3.37;2.00;;;;;;;7.64;39.22;100154.78;4281709;33;33575;-67
2022/04/17 00:37:56;;;;;;;3.87;2.10;;;;;;;7.39;38.73;100167.38;4284750;33;34626;-66
2022/04/17 00:40:24;;;;;;;3.87;2.20;;;;;;;7.77;37.25;100159.25;4278131;33;35775;-67
2022/04/17 00:42:53;;;;;;;3.05;2.15;;;;;;;7.70;39.03;100157.44;4291090;33;35491;-67
2022/04/17 00:45:21;;;;;;;4.43;2.45;;;;;;;7.86;38.84;100165.44;4290081;33;33444;-67
2022/04/17 00:47:49;;;;;;;4.22;2.30;;;;;;;7.78;38.39;100154.94;4290851;33;33787;-66
2022/04/17 00:50:16;;;;;;;4.82;2.60;;;;;;;8.07;37.77;100168.31;4290355;33;35300;-67
2022/04/17 00:52:45;;;;;;;4.32;2.28;;;;;;;8.03;37.27;100142.28;4289723;33;34415;-67
2022/04/17 00:55:15;;;;;;;6.30;2.83;;;;;;;7.90;37.92;100144.72;4288905;33;33550;-66
2022/04/17 00:57:43;;;;;;;3.70;2.22;;;;;;;7.91;38.04;100143.88;4290969;33;33928;-66
2022/04/17 01:00:11;;;;;;;4.50;2.80;;;;;;;7.43;39.43;100146.66;4290158;33;35171;-66
2022/04/17 01:02:39;;;;;;;3.08;2.00;;;;;;;7.61;39.46;100136.56;4276503;33;34449;-66
2022/04/17 01:05:07;;;;;;;2.67;1.87;;;;;;;7.37;38.24;100147.44;4276501;33;34439;-67
2022/04/17 01:07:37;;;;;;;4.20;2.08;;;;;;;7.31;38.86;100137.88;4290756;33;32529;-66
2022/04/17 01:10:07;;;;;;;3.15;1.98;;;;;;;7.41;38.14;100133.66;4277401;33;35926;-66
2022/04/17 01:12:36;;;;;;;3.62;2.10;;;;;;;7.60;38.13;100142.59;4290620;33;33631;-67
2022/04/17 01:15:05;;;;;;;4.47;2.58;;;;;;;7.56;37.15;100138.22;4289396;33;33401;-67
2022/04/17 01:17:33;;;;;;;3.40;2.03;;;;;;;7.58;36.95;100144.31;4289805;33;33985;-66
2022/04/17 01:20:01;;;;;;;2.80;1.80;;;;;;;7.90;35.73;100131.75;4290007;33;35032;-66
2022/04/17 01:22:29;;;;;;;2.85;1.73;;;;;;;7.88;35.71;100133.47;4288990;33;35264;-67
2022/04/17 01:27:44;;;;;;;3.55;2.25;;;;;;;8.21;36.00;100139.06;4289714;33;34067;-66
2022/04/17 01:30:11;;;;;;;1.80;1.60;;;;;;;8.22;36.87;100135.59;4289932;33;35742;-66
2022/04/17 01:32:39;;;;;;;2.92;1.77;;;;;;;8.42;36.28;100134.16;4287761;33;34742;-66
2022/04/17 01:35:08;;;;;;;5.68;2.45;;;;;;;8.07;36.06;100131.97;4289350;33;34245;-66
2022/04/17 01:37:35;;;;;;;3.60;1.92;;;;;;;8.17;35.30;100132.97;4289047;33;33866;-67
2022/04/17 01:40:04;;;;;;;4.68;2.33;;;;;;;8.12;36.02;100129.47;4288873;33;35073;-66
2022/04/17 01:42:32;;;;;;;3.47;2.03;;;;;;;8.14;36.67;100133.78;4278416;33;35181;-66
2022/04/17 01:44:59;;;;;;;4.07;2.47;;;;;;;8.37;35.03;100125.41;4275384;33;33690;-66
2022/04/17 01:47:27;;;;;;;2.62;1.77;;;;;;;8.08;36.60;100125.06;4286950;33;34961;-67
2022/04/17 01:49:55;;;;;;;2.40;1.75;;;;;;;8.23;34.75;100129.59;4289732;33;35054;-66
2022/04/17 01:52:23;;;;;;;5.15;2.00;;;;;;;8.20;35.38;100130.41;4288776;33;34444;-66
2022/04/17 01:54:51;;;;;;;2.37;1.73;;;;;;;8.17;35.98;100122.59;4282716;33;34192;-66
2022/04/17 01:57:19;;;;;;;2.65;1.90;;;;;;;8.36;34.80;100131.44;4285602;33;33863;-66
2022/04/17 01:59:47;;;;;;;3.50;1.92;;;;;;;8.35;34.43;100121.94;4288957;33;36002;-66
2022/04/17 02:02:14;;;;;;;2.42;1.60;;;;;;;8.18;34.98;100113.09;4288531;33;34446;-66
2022/04/17 02:04:43;;;;;;;3.08;1.70;;;;;;;7.68;37.17;100117.66;4289646;33;34335;-66
2022/04/17 02:07:10;;;;;;;3.30;1.85;;;;;;;7.63;37.51;100113.28;4288762;33;33872;-66
2022/04/17 02:09:38;;;;;;;3.05;1.73;;;;;;;8.03;35.86;100114.66;4289508;33;35132;-66
2022/04/17 02:12:06;;;;;;;3.62;1.60;;;;;;;8.22;36.04;100114.84;4287962;33;35220;-66
2022/04/17 02:14:34;;;;;;;3.37;1.73;;;;;;;7.85;37.59;100114.41;4284537;33;144762;-66
2022/04/17 02:17:02;;;;;;;2.92;1.70;;;;;;;8.02;35.09;100109.44;4289610;33;34000;-66
2022/04/17 02:19:30;;;;;;;3.58;1.95;;;;;;;7.67;35.47;100110.72;4290423;33;35110;-66
2022/04/17 02:21:58;;;;;;;1.85;1.40;;;;;;;7.84;36.36;100104.91;4289410;33;34441;-67
2022/04/17 02:24:25;;;;;;;1.83;1.40;;;;;;;7.74;37.26;100101.31;4290474;33;34088;-67
2022/04/17 02:26:53;;;;;;;2.97;1.90;;;;;;;7.48;37.03;100109.62;4289441;33;33950;-66
2022/04/17 02:29:21;;;;;;;4.15;2.33;;;;;;;7.26;37.63;100108.44;4290345;33;35059;-66
2022/04/17 02:31:49;;;;;;;1.85;1.52;;;;;;;7.57;37.06;100103.66;4289358;33;34546;-66
2022/04/17 02:34:17;;;;;;;1.90;1.67;;;;;;;7.76;36.16;100108.28;4276041;33;33770;-66
2022/04/17 02:36:44;;;;;;;2.95;1.95;;;;;;;8.13;35.91;100105.25;4287280;33;33903;-66
2022/04/17 02:39:12;;;;;;;2.47;1.80;;;;;;;7.63;37.33;100096.00;4290225;33;35118;-66
2022/04/17 02:41:40;;;;;;;2.47;1.52;;;;;;;7.87;36.00;100094.56;4289439;33;34469;-66
2022/04/17 02:44:08;;;;;;;3.20;1.45;;;;;;;6.94;39.48;100095.84;4279171;33;34164;-66
2022/04/17 02:49:22;;;;;;;1.73;1.55;;;;;;;7.19;36.61;100094.50;4279585;33;35994;-67
2022/04/17 02:51:50;;;;;;;2.45;1.60;;;;;;;7.30;38.32;100089.47;4282197;33;34981;-66
2022/04/17 02:54:17;;;;;;;3.33;1.67;;;;;;;7.43;35.89;100094.84;4290193;33;34377;-66
2022/04/17 02:56:46;;;;;;;2.03;1.37;;;;;;;7.54;36.01;100088.09;4289195;33;34076;-66
2022/04/17 02:59:13;;;;;;;1.98;1.35;;;;;;;7.68;36.44;100094.34;4289306;33;35104;-66
2022/04/17 03:07:14;;;;;;;8.33;2.00;;;;;;;7.04;37.89;100096.84;4289256;33;34875;-66
2022/04/17 03:09:42;;;;;;;2.78;1.55;;;;;;;6.71;37.17;100097.19;4289998;33;34821;-66
2022/04/17 03:12:10;;;;;;;1.87;1.50;;;;;;;6.57;37.49;100095.22;4276334;33;33978;-66
2022/04/17 03:14:38;;;;;;;2.17;1.62;;;;;;;6.59;37.57;100096.12;4288922;33;33301;-66
2022/04/17 03:17:06;;;;;;;2.33;1.50;;;;;;;6.49;37.21;100095.94;4287788;33;34813;-66
2022/04/17 03:19:34;;;;;;;2.28;1.73;;;;;;;6.41;36.84;100095.81;4289557;33;35064;-67
2022/04/17 03:22:02;;;;;;;2.90;1.73;;;;;;;6.53;37.79;100097.72;4287991;33;35099;-71
2022/04/17 03:24:31;;;;;;;2.55;2.08;;;;;;;6.43;37.90;100107.03;4289657;33;33528;-65
2022/04/17 03:26:59;;;;;;;3.40;1.80;;;;;;;6.37;37.54;100093.97;4288660;33;34129;-65
2022/04/17 03:29:27;;;;;;;3.47;1.87;;;;;;;6.12;38.08;100096.09;4289616;33;35929;-64
2022/04/17 03:31:55;;;;;;;4.47;1.65;;;;;;;6.14;38.60;100099.62;4287899;33;35043;-71
2022/04/17 03:34:23;;;;;;;2.75;1.45;;;;;;;5.88;38.86;100106.81;4289657;33;33128;-69
2022/04/17 03:36:50;;;;;;;2.00;1.48;;;;;;;6.11;38.39;100104.72;4284658;33;34759;-64
2022/04/17 03:39:18;;;;;;;1.92;1.40;;;;;;;6.16;38.40;100108.28;4289457;33;35777;-64
2022/04/17 03:41:47;;;;;;;3.37;1.60;;;;;;;5.96;38.19;100107.84;4288572;33;34580;-65
2022/04/17 03:44:15;;;;;;;2.70;1.70;;;;;;;6.08;38.38;100105.50;4289475;33;34252;-65
2022/04/17 03:46:43;;;;;;;2.17;1.60;;;;;;;6.41;37.80;100113.91;4288379;33;34595;-67
2022/04/17 03:49:11;;;;;;;1.75;1.30;;;;;;;6.26;38.37;100117.97;4288368;33;34841;-70
2022/04/17 03:51:39;;;;;;;2.45;1.58;;;;;;;6.07;37.70;100110.66;4288527;33;34520;-67
2022/04/17 03:54:07;;;;;;;1.92;1.35;;;;;;;6.03;38.15;100116.62;4280342;33;33702;-70
2022/04/17 03:56:35;;;;;;;2.42;1.70;;;;;;;6.18;38.44;100111.75;4278127;33;34813;-65
2022/04/17 03:59:03;;;;;;;2.75;1.95;;;;;;;5.86;37.83;100124.87;4289029;33;35995;-67
2022/04/17 04:01:31;;;;;;;3.03;1.90;;;;;;;6.24;37.49;100117.03;4288434;33;34468;-64
2022/04/17 04:03:59;;;;;;;3.53;1.70;;;;;;;6.04;37.87;100128.72;4288207;33;34128;-66
2022/04/17 04:06:27;;;;;;;4.30;1.50;;;;;;;6.31;37.30;100123.19;4276578;33;34869;-65
2022/04/17 04:08:55;;;;;;;2.65;1.80;;;;;;;6.38;36.95;100130.22;4289001;33;35945;-65
2022/04/17 04:11:23;;;;;;;3.20;1.73;;;;;;;6.32;38.26;100124.06;4288200;33;34645;-65
2022/04/17 04:13:51;;;;;;;1.77;1.48;;;;;;;6.01;38.21;100126.06;4287532;33;33632;-67
2022/04/17 04:16:18;;;;;;;3.10;1.70;;;;;;;6.29;38.03;100130.06;4288302;33;34243;-73
2022/04/17 04:18:47;;;;;;;3.25;1.80;;;;;;;6.30;38.12;100125.75;4288954;33;35878;-65
2022/04/17 04:21:14;;;;;;;3.67;1.45;;;;;;;6.38;37.46;100119.03;4286924;33;34469;-66
2022/04/17 04:23:42;;;;;;;2.15;1.60;;;;;;;6.17;39.37;100130.69;4289547;33;33579;-65
2022/04/17 04:26:10;;;;;;;3.08;1.80;;;;;;;6.16;38.97;100128.06;4290549;33;34195;-66
2022/04/17 04:28:38;;;;;;;3.12;2.00;;;;;;;6.25;39.39;100131.72;4287470;33;35174;-65
2022/04/17 04:31:10;;;;;;;4.68;1.85;;;;;;;6.33;39.24;100129.25;4276544;33;34446;-67
2022/04/17 04:33:39;;;;;;;2.30;1.50;;;;;;;7.02;37.02;100135.69;4287645;33;33511;-65
2022/04/17 04:36:11;;;;;;;2.37;1.60;;;;;;;8.57;35.09;100133.44;4276194;33;33916;-68
2022/04/17 04:38:40;;;;;;;2.72;1.98;;;;;;;9.84;32.99;100130.06;4290730;33;33345;-66
2022/04/17 04:41:09;;;;;;;2.87;1.83;;;;;;;8.50;35.37;100136.81;4289595;33;34881;-66
2022/04/17 04:43:36;;;;;;;4.68;1.65;;;;;;;8.76;34.83;100129.28;4290197;33;36306;-67
2022/04/17 04:46:07;;;;;;;2.75;1.60;;;;;;;8.84;34.25;100130.25;4289427;33;34534;-67
2022/04/17 04:51:23;;;;;;;;;;;;;;;8.59;35.20;100130.84;4291035;33;34419;-67
2022/04/17 04:53:50;;;;;;;2.80;2.00;;;;;;;8.77;35.05;100135.34;4291018;33;33283;-67
2022/04/17 04:56:19;;;;;;;4.60;1.90;;;;;;;7.71;37.64;100130.69;4290828;33;34629;-67
2022/04/17 04:58:47;;;;;;;1.85;1.67;;;;;;;8.32;37.02;100132.28;4289418;33;35171;-67
2022/04/17 05:01:15;;;;;;;1.90;1.65;;;;;;;9.35;34.07;100129.75;4290678;33;34609;-68
2022/04/17 05:03:43;;;;;;;2.70;1.80;;;;;;;9.53;33.07;100131.59;4290359;33;33735;-68
2022/04/17 05:06:11;;;;;;;2.62;1.70;;;;;;;9.70;33.27;100131.72;4290793;33;34011;-67
2022/04/17 05:08:39;;;;;;;4.28;1.90;;;;;;;9.45;33.63;100136.75;4290936;33;35864;-67
2022/04/17 05:11:07;;;;;;;2.85;1.70;;;;;;;9.25;32.67;100123.66;4291162;33;35206;-66
2022/04/17 05:13:35;;;;;;;2.12;1.80;;;;;;;9.23;32.70;100143.53;4301282;33;33549;-67
2022/04/17 05:16:03;;;;;;;2.22;1.45;;;;;;;9.10;34.30;100139.97;4293247;33;34038;-67
2022/04/17 05:18:32;;;;;;;2.33;1.60;;;;;;;9.08;33.78;100131.31;4290941;33;36025;-67
2022/04/17 05:21:01;;;;;;;2.80;1.65;;;;;;;9.51;34.24;100131.59;4290776;33;35152;-67
2022/04/17 05:23:29;;;;;;;3.28;1.73;;;;;;;9.32;34.74;100124.53;4290887;33;33553;-67
2022/04/17 05:25:59;;;;;;;2.00;1.42;;;;;;;9.09;33.90;100133.06;4290446;33;33988;-67
2022/04/17 05:28:28;;;;;;;3.08;1.77;;;;;;;9.17;34.69;100140.91;4290607;33;35785;-67
2022/04/17 05:30:58;;;;;;;2.33;1.45;;;;;;;8.95;33.96;100140.72;4290527;33;34461;-67
2022/04/17 05:33:26;;;;;;;2.37;1.55;;;;;;;9.17;34.43;100135.69;4290229;33;32655;-67
2022/04/17 05:35:55;;;;;;;3.05;2.08;;;;;;;9.16;33.89;100132.25;4289650;33;33841;-67
2022/04/17 05:38:23;;;;;;;3.58;1.60;;;;;;;8.56;34.80;100130.81;4290629;33;35454;-65
2022/04/17 05:40:52;;;;;;;3.12;1.80;;;;;;;8.57;35.15;100132.56;4293143;33;34627;-71
2022/04/17 05:43:20;;;;;;;2.45;1.85;;;;;;;9.31;34.24;100126.28;4289889;33;33424;-67
2022/04/17 05:45:48;;;;;;;2.22;1.48;;;;;;;9.68;34.35;100123.91;4289790;33;34857;-66
2022/04/17 05:48:17;;;;;;;2.50;1.60;;;;;;;9.48;34.38;100131.59;4290204;33;35849;-64
2022/04/17 05:50:46;;;;;;;2.12;1.73;;;;;;;9.38;31.85;100119.41;4290006;33;34610;-66
2022/04/17 05:53:14;;;;;;;3.30;1.98;;;;;;;8.78;34.06;100132.78;4290439;33;34371;-66
2022/04/17 05:55:42;;;;;;;1.58;1.23;;;;;;;9.13;32.56;100134.81;4290560;33;33958;-67
2022/04/17 05:58:10;;;;;;;5.60;2.47;;;;;;;9.11;32.73;100131.34;4289178;33;35078;-67
2022/04/17 06:00:42;;;;;;;1.80;1.37;;;;;;;9.28;33.03;100124.53;4290439;33;35186;-66
2022/04/17 06:03:11;;;;;;;2.58;1.70;;;;;;;9.26;33.99;100131.44;4290582;33;33472;-65
2022/04/17 06:05:38;;;;;;;2.95;1.87;;;;;;;8.95;33.32;100117.34;4290148;33;33905;-66
2022/04/17 06:08:07;;;;;;;3.28;1.95;;;;;;;9.03;33.47;100127.78;4290449;33;35079;-67
2022/04/17 06:10:35;;;;;;;2.08;1.73;;;;;;;9.41;33.79;100130.69;4290389;33;34355;-69
2022/04/17 06:13:03;;;;;;;2.67;1.37;;;;;;;9.92;32.71;100133.56;4290548;33;34273;-67
2022/04/17 06:15:30;;;;;;;2.87;1.83;;;;;;;9.44;33.62;100122.00;4290150;33;33838;-67
2022/04/17 06:17:59;;;;;;;2.35;1.45;;;;;;;9.80;32.51;100128.31;4290135;33;35836;-67
2022/04/17 06:20:26;;;;;;;2.20;1.52;;;;;;;9.27;34.49;100130.56;4289814;33;34530;-69
2022/04/17 06:22:55;;;;;;;2.65;1.67;;;;;;;9.84;32.93;100132.66;4288082;33;34139;-70
2022/04/17 06:25:23;;;;;;;4.95;2.08;;;;;;;9.97;32.74;100129.25;4289174;33;33901;-67
2022/04/17 06:27:51;;;;;;;2.17;1.52;;;;;;;10.18;32.62;100130.19;4280981;33;34573;-68
2022/04/17 06:30:24;;;;;;;2.85;1.80;;;;;;;10.33;33.10;100127.69;4288582;33;34340;-69
2022/04/17 06:32:52;;;;;;;2.80;1.75;;;;;;;10.20;32.59;100131.06;4290174;33;33595;-73
2022/04/17 06:35:20;;;;;;;2.58;1.62;;;;;;;10.43;32.07;100137.25;4289323;33;33845;-68
2022/04/17 06:37:53;;;;;;;2.60;1.35;;;;;;;10.55;33.48;100140.75;4289955;33;35188;-67
2022/04/17 06:40:26;;;;;;;2.90;1.92;;;;;;;10.36;33.57;100145.03;4289332;33;35070;-66
2022/04/17 06:42:56;;;;;;;3.08;1.75;;;;;;;10.49;32.29;100135.53;4286609;33;33749;-68
2022/04/17 06:45:25;;;;;;;2.20;1.65;;;;;;;10.93;32.64;100139.94;4288154;33;33928;-68
2022/04/17 06:47:54;;;;;;;2.90;1.70;;;;;;;10.64;31.60;100132.94;4289777;33;35061;-68
2022/04/17 06:50:22;;;;;;;2.92;1.50;;;;;;;11.44;32.21;100130.38;4289247;33;35271;-68
2022/04/17 06:52:50;;;;;;;1.75;1.40;;;;;;;11.20;31.57;100131.25;4290228;33;33079;-67
2022/04/17 06:55:18;;;;;;;2.50;1.58;;;;;;;11.17;32.45;100147.78;4289369;33;34945;-67
2022/04/17 06:57:50;;;;;;;3.05;2.08;;;;;;;11.08;31.49;100136.47;4289335;33;35106;-67
2022/04/17 07:00:21;;;;;;;2.53;1.60;;;;;;;11.33;34.02;100142.53;4288237;33;34543;-67
2022/04/17 07:02:50;;;;;;;3.70;1.90;;;;;;;11.75;29.11;100145.94;4290225;33;33569;-66
2022/04/17 07:05:18;;;;;;;2.35;1.52;;;;;;;11.11;31.85;100152.09;4289064;33;34791;-67
2022/04/17 07:07:46;;;;;;;4.90;1.90;;;;;;;11.33;32.47;100146.03;4290087;33;35323;-67
2022/04/17 07:10:14;;;;;;;3.28;1.87;;;;;;;11.36;31.08;100142.53;4289016;33;35251;-66
2022/04/17 07:12:44;;;;;;;2.37;1.52;;;;;;;11.85;29.46;100147.66;4289984;33;33339;-67
2022/04/17 07:15:12;;;;;;;2.67;1.67;;;;;;;12.31;28.12;100142.28;4287724;33;33284;-67
2022/04/17 07:17:41;;;;;;;3.40;1.80;;;;;;;12.01;30.90;100148.50;4287372;33;35681;-65
2022/04/17 07:20:10;;;;;;;3.05;1.62;;;;;;;12.26;27.52;100138.81;4287718;33;35322;-66
2022/04/17 07:22:42;;;;;;;2.12;1.30;;;;;;;12.12;30.43;100140.62;4289670;33;34153;-65
2022/04/17 07:25:12;;;;;;;3.03;2.03;;;;;;;11.19;32.01;100140.81;4288885;33;33979;-67
2022/04/17 07:27:50;;;;;;;2.78;1.83;;;;;;;11.50;31.41;100135.56;4289049;33;35559;-67
2022/04/17 07:30:21;;;;;;;2.20;1.77;;;;;;;10.58;35.90;100145.97;4278608;33;34827;-68
2022/04/17 07:32:51;;;;;;;3.62;2.00;;;;;;;11.49;31.92;100136.44;4286365;33;34320;-68
2022/04/17 07:35:20;;;;;;;3.05;1.90;;;;;;;11.51;31.13;100141.66;4289178;33;33091;-67
2022/04/17 07:37:50;;;;;;;5.45;2.75;;;;;;;11.85;30.92;100138.97;4289603;33;35201;-68
2022/04/17 07:40:21;;;;;;;6.53;3.08;;;;;;;11.76;32.40;100139.84;4288914;33;34339;-67
2022/04/17 07:42:50;;;;;;;4.05;2.12;;;;;;;11.50;34.25;100138.16;4288379;33;33514;-68
2022/04/17 07:45:19;;;;;;;2.75;1.85;;;;;;;12.37;32.61;100141.41;4288691;33;34069;-67
2022/04/17 07:47:47;;;;;;;2.65;1.90;;;;;;;12.86;30.11;100134.97;4280656;33;35135;-67
2022/04/17 07:50:21;;;;;;;2.65;1.55;;;;;;;13.20;28.03;100132.09;4285105;33;34468;-68
2022/04/17 07:52:49;;;;;;;1.87;1.37;;;;;;;13.34;26.64;100132.88;4289500;33;34530;-67
2022/04/17 07:55:17;;;;;;;2.53;1.80;;;;;;;13.19;26.85;100138.22;4288409;33;34007;-67
2022/04/17 07:58:09;;;;;;;4.62;1.85;;;;;;;13.36;25.94;100130.22;4289449;33;35114;-68
2022/04/17 08:00:51;;;;;;;6.60;2.60;;;;;;;13.55;26.47;100131.78;4289836;33;35317;-68
2022/04/17 08:03:35;;;;;;;7.50;3.10;;;;;;;13.33;29.13;100120.69;4288578;33;33375;-68
2022/04/17 08:06:06;;;;;;;9.45;3.58;;;;;;;12.92;31.49;100124.50;4290810;33;34121;-68
2022/04/17 08:08:39;;;;;;;9.15;3.22;;;;;;;13.63;30.19;100119.50;4291186;33;35093;-68
2022/04/17 08:11:08;;;;;;;14.38;4.20;;;;;;;14.30;29.28;100116.94;4291274;33;34506;-68
2022/04/17 08:13:36;;;;;;;13.75;3.75;;;;;;;14.19;27.04;100109.25;4290024;33;34459;-69
2022/04/17 08:16:05;;;;;;;6.15;2.00;;;;;;;13.34;29.26;100111.97;4287145;33;34064;-67
2022/04/17 08:18:41;;;;;;;12.80;3.55;;;;;;;12.45;28.41;100120.44;4288200;33;34963;-68
2022/04/17 08:21:09;;;;;;;10.55;2.78;;;;;;;12.32;30.07;100123.13;4287748;33;34281;-69
2022/04/17 08:23:37;;;;;;;2.42;1.70;;;;;;;13.25;28.32;100118.13;4288017;33;33810;-68
2022/04/17 08:26:06;;;;;;;11.12;2.92;;;;;;;13.92;26.63;100106.97;4289465;33;33953;-67
2022/04/17 08:28:34;;;;;;;11.00;3.35;;;;;;;13.20;29.31;100105.94;4290407;33;34544;-69
2022/04/17 08:31:02;;;;;;;2.28;1.60;;;;;;;13.90;27.37;100093.03;4289763;33;35308;-70
2022/04/17 08:33:30;;;;;;;19.33;5.22;;;;;;;14.55;26.15;100096.50;4288685;33;33431;-69
2022/04/17 08:35:59;;;;;;;2.80;1.92;;;;;;;14.96;27.09;100084.56;4288367;33;34838;-70
2022/04/17 08:38:27;;;;;;;4.30;2.03;;;;;;;14.88;26.48;100090.81;4290545;33;35053;-70
2022/04/17 08:40:57;;;;;;;11.18;3.20;;;;;;;15.31;26.61;100092.69;4290159;33;34531;-69
2022/04/17 08:43:26;;;;;;;24.60;6.87;;;;;;;13.58;31.09;100089.03;4290994;33;34194;-70
2022/04/17 08:45:55;;;;;;;4.93;2.35;;;;;;;14.13;30.21;100082.25;4289863;33;34005;-70
2022/04/17 08:48:23;;;;;;;2.15;1.50;;;;;;;14.09;27.77;100084.06;4290097;33;35108;-69
2022/04/17 08:50:54;;;;;;;3.08;2.00;;;;;;;14.68;26.36;100091.09;4290110;33;34341;-70
2022/04/17 08:53:22;;;;;;;3.60;1.95;;;;;;;14.37;26.23;100102.03;4290265;33;33013;-69
2022/04/17 08:55:51;;;;;;;3.40;1.90;;;;;;;15.24;23.47;100091.91;4288791;33;34843;-69
2022/04/17 08:58:19;;;;;;;5.68;2.08;;;;;;;14.47;24.42;100085.28;4290916;33;36019;-70
2022/04/17 09:00:49;;;;;;;16.58;5.90;;;;;;;14.11;25.99;100071.78;4289861;33;33666;-70
2022/04/17 09:03:17;;;;;;;3.55;1.83;;;;;;;14.77;27.60;100078.72;4290783;33;34410;-70
2022/04/17 09:05:45;;;;;;;11.43;3.70;;;;;;;15.20;25.26;100057.91;4289850;33;34773;-70
2022/04/17 09:08:18;;;;;;;2.92;1.62;;;;;;;14.79;27.68;100062.97;4288825;33;35270;-67
2022/04/17 09:10:58;;;;;;;2.67;1.70;;;;;;;15.42;23.85;100060.97;4289624;33;34516;-70
2022/04/17 09:13:34;;;;;;;15.90;5.47;;;;;;;15.28;24.96;100056.88;4289992;33;33757;-70
2022/04/17 09:16:03;;;;;;;4.90;2.58;;;;;;;15.89;27.46;100056.59;4289402;33;33999;-69
2022/04/17 09:18:32;;;;;;;2.65;1.70;;;;;;;15.15;25.11;100060.59;4290627;33;34949;-69
2022/04/17 09:21:02;;;;;;;86.60;37.65;;;;;;;15.47;24.91;100051.28;4289459;33;34459;-69
2022/04/17 09:23:38;;;;;;;309.25;183.05;;;;;;;15.49;26.82;100052.09;4285439;33;33440;-70
2022/04/17 09:26:07;;;;;;;54.22;31.05;;;;;;;15.24;26.99;100049.09;4289255;33;33988;-69
2022/04/17 09:28:37;;;;;;;16.87;6.68;;;;;;;15.73;25.57;100048.97;4288681;33;35176;-69
2022/04/17 09:31:12;;;;;;;12.93;4.10;;;;;;;15.15;29.37;100042.25;4287800;33;34538;-69
2022/04/17 09:33:42;;;;;;;19.42;6.22;;;;;;;16.13;28.91;100036.81;4288668;33;33512;-69
2022/04/17 09:36:12;;;;;;;25.30;8.30;;;;;;;15.78;30.36;100027.06;4289496;33;34798;-69
2022/04/17 09:38:42;;;;;;;9.57;4.28;;;;;;;15.84;27.36;100034.81;4289705;33;35061;-70
2022/04/17 09:41:15;;;;;;;18.73;5.72;;;;;;;16.10;29.43;100027.22;4288934;33;34520;-69
2022/04/17 09:43:47;;;;;;;7.55;4.85;;;;;;;14.54;28.44;100021.41;4289978;33;33495;-70
2022/04/17 09:46:15;;;;;;;9.25;6.03;;;;;;;14.96;25.56;100023.34;4289577;33;33927;-71
2022/04/17 09:48:44;;;;;;;13.00;4.37;;;;;;;15.59;25.74;100024.78;4290480;33;35795;-70
2022/04/17 09:51:22;;;;;;;299.10;150.93;;;;;;;15.68;26.46;100013.22;4284445;33;34362;-70
2022/04/17 09:53:56;;;;;;;145.40;76.78;;;;;;;15.85;24.54;100015.53;4263528;33;34514;-70
2022/04/17 09:56:39;;;;;;;41.60;21.70;;;;;;;15.40;27.29;100010.28;4288572;33;34844;-70
2022/04/17 09:59:17;;;;;;;14.35;7.18;;;;;;;14.56;25.77;100003.91;4289580;33;35967;-71
2022/04/17 10:01:57;;;;;;;60.35;27.35;;;;;;;14.10;27.76;100009.84;4274821;33;34419;-70
2022/04/17 10:04:26;;;;;;;58.03;33.53;;;;;;;14.25;26.98;99998.25;4275843;33;34553;-69
2022/04/17 10:06:58;;;;;;;98.97;48.83;;;;;;;14.78;26.89;99995.69;4290175;33;34916;-70
2022/04/17 10:09:26;;;;;;;144.37;69.85;;;;;;;14.06;28.00;99984.56;4285081;33;35197;-70
2022/04/17 10:11:59;;;;;;;49.97;25.67;;;;;;;13.37;31.86;99991.59;4282017;33;35177;-70
2022/04/17 10:14:28;;;;;;;119.25;65.40;;;;;;;12.62;30.76;99982.75;4276084;33;33360;-70
2022/04/17 10:16:57;;;;;;;111.90;61.97;;;;;;;14.02;27.60;99998.59;4290271;33;34331;-71
2022/04/17 10:19:32;;;;;;;63.65;40.05;;;;;;;15.14;27.48;99985.41;4289509;33;35049;-70
2022/04/17 10:22:03;;;;;;;121.80;61.05;;;;;;;15.55;25.45;99976.72;4286907;33;34444;-70
2022/04/17 10:24:32;;;;;;;513.33;353.17;;;;;;;15.77;28.49;99985.94;4285261;33;33322;-70
2022/04/17 10:27:00;;;;;;;80.30;45.90;;;;;;;16.63;24.72;99973.41;4278552;33;35018;-70
2022/04/17 10:29:36;;;;;;;26.75;8.98;;;;;;;17.04;28.91;99968.84;4274213;33;35774;-70
2022/04/17 10:32:28;;;;;;;40.85;19.37;;;;;;;16.47;25.44;99968.53;4288059;33;34514;-71
2022/04/17 10:35:26;;;;;;;2.53;1.80;;;;;;;16.35;27.70;99968.84;4284468;33;33636;-71
2022/04/17 10:38:12;;;;;;;6.70;2.15;;;;;;;17.90;22.00;99958.50;4288754;33;34682;-70
2022/04/17 10:40:40;;;;;;;22.17;9.97;;;;;;;17.62;23.46;99954.03;4289100;33;35049;-71
2022/04/17 10:43:08;;;;;;;8.15;2.40;;;;;;;15.71;25.52;99961.50;4285083;33;34386;-71
2022/04/17 10:46:10;;;;;;;19.10;5.15;;;;;;;15.90;25.32;99951.50;4281115;33;34147;-70
2022/04/17 10:48:58;;;;;;;2.00;1.23;;;;;;;15.76;25.40;99945.69;4289894;33;33815;-71
2022/04/17 10:51:29;;;;;;;2.83;1.55;;;;;;;15.51;23.82;99946.19;4287314;33;36223;-70
2022/04/17 10:54:10;;;;;;;40.97;9.35;;;;;;;15.76;23.12;99942.19;4290105;33;35348;-70
2022/04/17 10:56:39;;;;;;;8.38;2.17;;;;;;;16.01;23.42;99924.97;4289367;33;34745;-71
2022/04/17 10:59:20;;;;;;;13.85;4.45;;;;;;;16.84;22.49;99915.00;4289305;33;34050;-69
2022/04/17 11:01:48;;;;;;;20.88;10.32;;;;;;;16.73;22.83;99927.56;4289433;33;35184;-69
2022/04/17 11:04:24;;;;;;;1245.55;638.28;;;;;;;17.08;21.25;99933.66;4289944;33;35213;-69
2022/04/17 11:07:09;;;;;;;681.58;379.38;;;;;;;17.22;20.96;99926.25;4289021;33;33860;-71
2022/04/17 11:09:42;;;;;;;772.95;472.13;;;;;;;17.70;21.43;99919.56;4289972;33;34622;-70
2022/04/17 11:12:10;;;;;;;439.52;248.90;;;;;;;17.69;21.56;99915.19;4268924;33;34637;-70
2022/04/17 11:14:39;;;;;;;138.75;81.37;;;;;;;17.79;19.73;99913.16;4274629;33;35349;-71
2022/04/17 11:17:08;;;;;;;22.85;15.80;;;;;;;17.88;20.63;99905.00;4287120;33;34201;-69
2022/04/17 11:19:38;;;;;;;17.73;12.07;;;;;;;18.84;17.54;99913.22;4289849;33;34106;-70
2022/04/17 11:22:08;;;;;;;4.55;1.85;;;;;;;18.69;17.97;99909.31;4287638;33;34909;-69
2022/04/17 11:25:01;;;;;;;7.32;3.25;;;;;;;18.52;19.14;99895.84;4289705;33;34600;-72
2022/04/17 11:27:41;;;;;;;9.15;3.72;;;;;;;17.81;24.65;99892.88;4289467;33;34335;-71
2022/04/17 11:30:31;;;;;;;14.02;4.70;;;;;;;17.88;22.00;99889.19;4289052;33;34754;-71
2022/04/17 11:33:00;;;;;;;2.62;1.55;;;;;;;17.74;21.68;99891.34;4290376;33;35924;-71
2022/04/17 11:35:30;;;;;;;1.55;1.37;;;;;;;18.31;19.53;99895.66;4289333;33;34582;-70
2022/04/17 11:38:01;;;;;;;7.30;2.47;;;;;;;18.44;20.56;99898.78;4291297;33;33404;-71
2022/04/17 11:40:34;;;;;;;2.97;1.42;;;;;;;18.57;21.26;99884.22;4290519;33;33859;-71
2022/04/17 11:43:15;;;;;;;1.80;1.27;;;;;;;17.88;19.75;99889.19;4290703;33;35994;-72
2022/04/17 11:45:47;;;;;;;2.65;1.42;;;;;;;18.00;19.18;99888.78;4288262;33;34446;-71
2022/04/17 11:48:21;;;;;;;11.75;3.40;;;;;;;16.94;22.21;99891.06;4279066;33;33533;-72
2022/04/17 11:50:59;;;;;;;17.70;4.30;;;;;;;16.00;27.06;99883.84;4282534;33;34023;-69
2022/04/17 11:53:31;;;;;;;4.28;1.73;;;;;;;15.19;24.29;99883.03;4290521;33;36139;-71
2022/04/17 11:55:59;;;;;;;11.00;3.53;;;;;;;15.23;23.46;99880.31;4290609;33;34980;-69